createdAt,value
2019-04-04T00:01:02.169Z,92.66
2019-04-04T00:03:31.625Z,92.58
2019-04-04T00:06:00.942Z,92.65
2019-04-04T00:08:31.636Z,92.65
2019-04-04T00:10:59.830Z,92.60
2019-04-04T00:13:29.311Z,92.42
2019-04-04T00:15:58.667Z,92.61
2019-04-04T00:18:28.419Z,92.16
2019-04-04T00:20:57.713Z,92.54
2019-04-04T00:23:27.029Z,92.57
2019-04-04T00:26:17.899Z,92.36
2019-04-04T00:28:47.235Z,92.61
2019-04-04T00:31:18.906Z,92.76
2019-04-04T00:33:45.867Z,93.04
2019-04-04T00:36:15.723Z,93.17
2019-04-04T00:38:45.021Z,93.02
2019-04-04T00:41:14.614Z,92.89
2019-04-04T00:43:46.022Z,92.72
2019-04-04T00:46:15.402Z,92.37
2019-04-04T00:48:44.712Z,92.30
2019-04-04T00:51:13.952Z,92.29
2019-04-04T00:53:43.599Z,92.72
2019-04-04T00:56:12.528Z,92.95
2019-04-04T00:58:41.967Z,93.08
2019-04-04T01:01:11.282Z,93.27
2019-04-04T01:03:40.576Z,93.24
2019-04-04T01:06:09.983Z,93.38
2019-04-04T01:08:39.314Z,93.30
2019-04-04T01:11:08.569Z,93.83
2019-04-04T01:13:37.858Z,93.89
2019-04-04T01:16:07.135Z,93.88
2019-04-04T01:18:37.455Z,93.79
2019-04-04T01:21:05.635Z,93.89
2019-04-04T01:23:34.911Z,93.86
2019-04-04T01:26:04.214Z,93.94
2019-04-04T01:28:33.521Z,93.76
2019-04-04T01:31:02.854Z,93.58
2019-04-04T01:33:32.120Z,93.57
2019-04-04T01:36:01.365Z,93.74
2019-04-04T01:38:30.605Z,93.67
2019-04-04T01:40:59.843Z,93.67
2019-04-04T01:43:29.077Z,93.72
2019-04-04T01:45:58.319Z,93.72
2019-04-04T01:48:27.619Z,93.84
2019-04-04T01:50:56.859Z,94.06
2019-04-04T01:53:26.132Z,93.83
2019-04-04T01:55:55.439Z,93.89
2019-04-04T01:58:24.681Z,93.83
2019-04-04T02:00:53.932Z,93.82
2019-04-04T02:03:23.394Z,93.96
2019-04-04T02:05:52.370Z,93.74
2019-04-04T02:08:21.625Z,94.01
2019-04-04T02:10:50.891Z,94.21
2019-04-04T02:13:20.128Z,94.35
2019-04-04T02:15:49.367Z,94.11
2019-04-04T02:18:18.639Z,94.04
2019-04-04T02:20:47.852Z,94.18
2019-04-04T02:23:17.067Z,94.09
2019-04-04T02:25:46.282Z,94.16
2019-04-04T02:28:15.507Z,94.40
2019-04-04T02:30:48.022Z,94.40
2019-04-04T02:33:14.009Z,94.18
2019-04-04T02:35:43.959Z,94.28
2019-04-04T02:38:12.536Z,94.39
2019-04-04T02:40:42.281Z,94.51
2019-04-04T02:43:10.952Z,94.46
2019-04-04T02:45:40.162Z,94.51
2019-04-04T02:48:09.418Z,94.34
2019-04-04T02:50:38.736Z,93.93
2019-04-04T02:53:08.035Z,93.91
2019-04-04T02:55:37.326Z,94.08
2019-04-04T02:58:06.605Z,94.08
2019-04-04T03:00:35.916Z,93.88
2019-04-04T03:03:08.028Z,93.57
2019-04-04T03:05:34.642Z,93.38
2019-04-04T03:08:04.584Z,93.37
2019-04-04T03:10:33.091Z,93.37
2019-04-04T03:13:02.320Z,92.93
2019-04-04T03:15:31.535Z,93.21
2019-04-04T03:18:04.071Z,93.50
2019-04-04T03:20:30.013Z,93.53
2019-04-04T03:23:00.580Z,93.50
2019-04-04T03:25:28.484Z,93.83
2019-04-04T03:27:58.258Z,93.83
2019-04-04T03:30:26.972Z,93.92
2019-04-04T03:32:56.230Z,93.97
2019-04-04T03:35:28.086Z,94.05
2019-04-04T03:37:54.766Z,94.17
2019-04-04T03:40:25.588Z,94.16
2019-04-04T03:42:53.349Z,94.17
2019-04-04T03:45:26.188Z,94.05
2019-04-04T03:47:51.802Z,93.96
2019-04-04T03:50:21.006Z,93.93
2019-04-04T03:52:50.287Z,94.03
2019-04-04T03:55:19.458Z,94.03
2019-04-04T03:57:48.724Z,93.86
2019-04-04T04:00:27.247Z,93.94
2019-04-04T04:02:56.511Z,93.66
2019-04-04T04:05:26.239Z,94.04
2019-04-04T04:07:55.452Z,94.19
2019-04-04T04:10:24.712Z,93.98
2019-04-04T04:12:53.941Z,93.96
2019-04-04T04:15:23.166Z,93.84
2019-04-04T04:17:52.396Z,93.97
2019-04-04T04:20:21.615Z,93.72
2019-04-04T04:22:51.665Z,93.72
2019-04-04T04:25:20.166Z,94.06
2019-04-04T04:27:50.382Z,93.87
2019-04-04T04:30:19.642Z,93.87
2019-04-04T04:32:48.897Z,93.89
2019-04-04T04:35:18.176Z,93.58
2019-04-04T04:37:52.310Z,93.30
2019-04-04T04:40:16.793Z,93.33
2019-04-04T04:42:46.029Z,93.54
2019-04-04T04:45:15.275Z,93.63
2019-04-04T04:47:44.479Z,93.59
2019-04-04T04:50:13.722Z,92.83
2019-04-04T04:52:46.494Z,92.10
2019-04-04T04:55:12.299Z,92.07
2019-04-04T04:57:41.396Z,92.30
2019-04-04T05:00:10.841Z,92.58
2019-04-04T05:02:40.203Z,92.60
2019-04-04T05:05:09.591Z,93.17
2019-04-04T05:07:39.140Z,93.21
2019-04-04T05:10:08.176Z,93.18
2019-04-04T05:12:37.469Z,93.34
2019-04-04T05:15:06.795Z,93.47
2019-04-04T05:17:36.165Z,93.37
2019-04-04T05:20:06.159Z,93.34
2019-04-04T05:22:35.440Z,93.30
2019-04-04T05:25:08.394Z,93.23
2019-04-04T05:27:36.848Z,93.36
2019-04-04T05:30:03.682Z,93.43
2019-04-04T05:32:32.959Z,93.52
2019-04-04T05:35:02.271Z,93.50
2019-04-04T05:37:31.515Z,93.53
2019-04-04T05:40:00.821Z,93.60
2019-04-04T05:42:32.779Z,93.73
2019-04-04T05:44:59.467Z,93.78
2019-04-04T05:47:28.848Z,94.06
2019-04-04T05:49:58.458Z,93.89
2019-04-04T05:52:27.839Z,93.80
2019-04-04T05:54:57.423Z,92.74
2019-04-04T05:57:26.629Z,92.86
2019-04-04T05:59:56.191Z,92.86
2019-04-04T06:02:25.053Z,91.74
2019-04-04T06:04:55.412Z,92.61
2019-04-04T06:07:23.556Z,93.13
2019-04-04T06:09:52.983Z,93.11
2019-04-04T06:12:24.722Z,92.45
2019-04-04T06:14:51.523Z,92.45
2019-04-04T06:17:20.765Z,92.43
2019-04-04T06:19:50.047Z,92.45
2019-04-04T06:22:21.127Z,91.60
2019-04-04T06:24:48.643Z,92.08
2019-04-04T06:27:17.910Z,91.60
2019-04-04T06:29:47.978Z,91.06
2019-04-04T06:32:16.523Z,91.32
2019-04-04T06:34:45.770Z,90.87
2019-04-04T06:37:15.078Z,90.66
2019-04-04T06:39:44.374Z,90.29
2019-04-04T06:42:13.656Z,90.17
2019-04-04T06:44:43.904Z,90.79
2019-04-04T06:47:12.125Z,90.95
2019-04-04T06:49:41.343Z,90.79
2019-04-04T06:52:10.575Z,89.82
2019-04-04T06:54:39.835Z,90.07
2019-04-04T06:57:09.065Z,90.08
2019-04-04T06:59:38.389Z,90.05
2019-04-04T07:02:07.626Z,90.14
2019-04-04T07:04:36.867Z,90.19
2019-04-04T07:07:06.092Z,88.74
2019-04-04T07:09:37.243Z,88.53
2019-04-04T07:12:06.500Z,89.50
2019-04-04T07:14:45.254Z,89.50
2019-04-04T07:17:03.404Z,89.06
2019-04-04T07:19:32.445Z,88.78
2019-04-04T07:22:01.667Z,88.16
2019-04-04T07:24:31.181Z,87.60
2019-04-04T07:27:00.192Z,87.97
2019-04-04T07:29:29.360Z,87.86
2019-04-04T07:31:58.559Z,87.76
2019-04-04T07:34:27.838Z,87.02
2019-04-04T07:36:57.107Z,86.29
2019-04-04T07:39:26.330Z,84.72
2019-04-04T07:41:55.560Z,85.52
2019-04-04T07:44:24.873Z,85.26
2019-04-04T07:46:54.077Z,86.26
2019-04-04T07:49:23.948Z,86.08
2019-04-04T07:51:52.555Z,86.35
2019-04-04T07:54:21.786Z,84.91
2019-04-04T07:56:51.021Z,84.73
2019-04-04T07:59:20.267Z,84.69
2019-04-04T08:01:51.292Z,83.29
2019-04-04T08:04:18.948Z,84.03
2019-04-04T08:06:48.178Z,82.72
2019-04-04T08:09:17.422Z,82.98
2019-04-04T08:11:46.636Z,82.44
2019-04-04T08:14:15.900Z,80.77
2019-04-04T08:16:45.146Z,81.07
2019-04-04T08:19:14.375Z,80.28
2019-04-04T08:21:43.608Z,78.99
2019-04-04T08:24:12.850Z,79.08
2019-04-04T08:26:42.071Z,79.04
2019-04-04T08:29:11.290Z,78.27
2019-04-04T08:31:40.572Z,75.65
2019-04-04T08:34:09.872Z,76.65
2019-04-04T08:36:39.083Z,76.75
2019-04-04T08:39:11.334Z,77.35
2019-04-04T08:41:40.708Z,76.60
2019-04-04T08:44:10.109Z,76.36
2019-04-04T08:46:39.370Z,76.46
2019-04-04T08:49:08.638Z,76.39
2019-04-04T08:51:37.890Z,76.44
2019-04-04T08:54:07.199Z,76.47
2019-04-04T08:56:36.444Z,77.28
2019-04-04T08:59:05.670Z,77.41
2019-04-04T09:01:34.948Z,77.75
2019-04-04T09:04:04.181Z,77.08
2019-04-04T09:06:33.415Z,77.08
2019-04-04T09:09:02.702Z,77.45
2019-04-04T09:11:31.974Z,77.45
2019-04-04T09:14:01.160Z,76.18
2019-04-04T09:16:30.470Z,76.15
2019-04-04T09:18:59.696Z,76.35
2019-04-04T09:21:28.964Z,76.03
2019-04-04T09:24:00.466Z,75.91
2019-04-04T09:26:27.467Z,73.86
2019-04-04T09:28:56.676Z,73.37
2019-04-04T09:31:25.948Z,71.97
2019-04-04T09:33:55.185Z,71.38
2019-04-04T09:36:24.422Z,71.69
2019-04-04T09:38:53.699Z,71.39
2019-04-04T09:41:22.927Z,72.11
2019-04-04T09:43:52.168Z,71.12
2019-04-04T09:46:21.432Z,70.89
2019-04-04T09:48:50.699Z,69.54
2019-04-04T09:51:19.998Z,68.29
2019-04-04T09:53:53.148Z,68.57
2019-04-04T09:56:18.502Z,69.05
2019-04-04T09:58:47.728Z,69.45
2019-04-04T10:01:16.961Z,69.27
2019-04-04T10:03:46.224Z,69.43
2019-04-04T10:06:15.474Z,70.23
2019-04-04T10:08:44.717Z,70.83
2019-04-04T10:11:14.025Z,70.38
2019-04-04T10:13:43.312Z,70.00
2019-04-04T10:16:12.551Z,69.58
2019-04-04T10:18:41.771Z,68.90
2019-04-04T10:21:12.441Z,69.78
2019-04-04T10:23:40.357Z,70.53
2019-04-04T10:26:09.656Z,69.59
2019-04-04T10:28:38.935Z,69.31
2019-04-04T10:31:08.137Z,70.20
2019-04-04T10:33:37.363Z,70.01
2019-04-04T10:36:06.585Z,69.32
2019-04-04T10:38:35.849Z,70.13
2019-04-04T10:41:05.103Z,69.84
2019-04-04T10:43:34.325Z,69.98
2019-04-04T10:46:03.520Z,69.39
2019-04-04T10:48:32.738Z,70.35
2019-04-04T10:51:01.952Z,70.03
2019-04-04T10:53:31.195Z,70.23
2019-04-04T10:56:00.414Z,70.08
2019-04-04T10:58:29.693Z,69.69
2019-04-04T11:00:58.914Z,69.26
2019-04-04T11:03:28.212Z,69.88
2019-04-04T11:05:57.437Z,69.29
2019-04-04T11:08:26.682Z,68.26
2019-04-04T11:10:58.850Z,67.83
2019-04-04T11:13:33.341Z,66.18
2019-04-04T11:15:54.534Z,65.85
2019-04-04T11:18:23.788Z,67.63
2019-04-04T11:20:52.996Z,67.84
2019-04-04T11:23:22.259Z,67.56
2019-04-04T11:25:51.512Z,66.59
2019-04-04T11:28:20.755Z,67.42
2019-04-04T11:30:49.988Z,67.41
2019-04-04T11:33:19.293Z,66.46
2019-04-04T11:35:48.555Z,65.46
2019-04-04T11:38:17.809Z,66.34
2019-04-04T11:40:47.024Z,66.82
2019-04-04T11:43:16.264Z,66.77
2019-04-04T11:45:45.512Z,66.79
2019-04-04T11:48:14.746Z,67.63
2019-04-04T11:50:43.959Z,67.58
2019-04-04T11:53:13.313Z,67.85
2019-04-04T11:55:42.577Z,68.31
2019-04-04T11:58:11.800Z,68.07
2019-04-04T12:00:42.368Z,67.88
2019-04-04T12:03:11.593Z,67.66
2019-04-04T12:05:40.834Z,68.08
2019-04-04T12:08:10.067Z,68.67
2019-04-04T12:10:39.348Z,68.33
2019-04-04T12:13:08.628Z,68.40
2019-04-04T12:15:37.904Z,68.58
2019-04-04T12:18:07.140Z,69.11
2019-04-04T12:20:36.383Z,68.60
2019-04-04T12:23:05.628Z,69.27
2019-04-04T12:25:34.884Z,69.84
2019-04-04T12:28:04.106Z,69.89
2019-04-04T12:30:33.407Z,69.83
2019-04-04T12:33:02.645Z,69.81
2019-04-04T12:35:31.888Z,69.23
2019-04-04T12:38:01.106Z,68.83
2019-04-04T12:40:30.322Z,69.35
2019-04-04T12:42:59.608Z,69.74
2019-04-04T12:45:28.873Z,70.01
2019-04-04T12:47:58.100Z,70.15
2019-04-04T12:50:27.334Z,70.97
2019-04-04T12:52:56.622Z,71.05
2019-04-04T12:55:25.860Z,71.37
2019-04-04T12:57:55.109Z,72.09
2019-04-04T13:00:24.352Z,72.16
2019-04-04T13:02:53.624Z,72.72
2019-04-04T13:05:22.866Z,72.78
2019-04-04T13:07:52.143Z,73.29
2019-04-04T13:10:32.535Z,73.46
2019-04-04T13:12:50.666Z,73.66
2019-04-04T13:15:19.947Z,73.91
2019-04-04T13:17:49.160Z,73.90
2019-04-04T13:20:18.364Z,73.77
2019-04-04T13:22:47.630Z,73.65
2019-04-04T13:25:16.942Z,73.40
2019-04-04T13:27:46.232Z,73.39
2019-04-04T13:30:15.458Z,72.66
2019-04-04T13:32:44.681Z,73.02
2019-04-04T13:35:14.022Z,73.06
2019-04-04T13:37:43.261Z,72.90
2019-04-04T13:40:12.534Z,72.64
2019-04-04T13:42:41.782Z,72.30
2019-04-04T13:45:11.573Z,71.44
2019-04-04T13:47:40.803Z,71.79
2019-04-04T13:50:12.459Z,71.46
2019-04-04T13:52:39.338Z,72.03
2019-04-04T13:55:08.566Z,72.07
2019-04-04T13:57:39.242Z,72.29
2019-04-04T14:00:07.122Z,72.93
2019-04-04T14:02:36.449Z,73.12
2019-04-04T14:05:10.183Z,73.30
2019-04-04T14:07:35.693Z,73.24
2019-04-04T14:10:05.582Z,73.69
2019-04-04T14:12:34.999Z,73.69
2019-04-04T14:15:04.650Z,73.90
2019-04-04T14:17:33.986Z,74.09
2019-04-04T14:20:03.199Z,74.07
2019-04-04T14:22:32.464Z,74.50
2019-04-04T14:25:01.775Z,74.87
2019-04-04T14:27:30.982Z,75.04
2019-04-04T14:30:00.185Z,75.26
2019-04-04T14:32:29.432Z,75.36
2019-04-04T14:34:58.647Z,75.76
2019-04-04T14:37:27.882Z,75.95
2019-04-04T14:39:57.280Z,76.01
2019-04-04T14:42:26.517Z,76.14
2019-04-04T14:44:55.784Z,75.97
2019-04-04T14:47:25.008Z,76.14
2019-04-04T14:49:54.227Z,76.22
2019-04-04T14:52:24.292Z,76.00
2019-04-04T14:54:52.654Z,76.24
2019-04-04T14:57:21.930Z,76.46
2019-04-04T14:59:51.171Z,76.43
2019-04-04T15:02:20.572Z,76.53
2019-04-04T15:04:49.827Z,76.69
2019-04-04T15:07:19.033Z,76.89
2019-04-04T15:09:48.378Z,76.96
2019-04-04T15:12:17.602Z,77.42
2019-04-04T15:14:46.833Z,77.93
2019-04-04T15:17:16.144Z,77.47
2019-04-04T15:19:45.770Z,77.09
2019-04-04T15:22:15.062Z,76.92
2019-04-04T15:24:44.312Z,76.29
2019-04-04T15:27:12.868Z,76.54
2019-04-04T15:29:42.172Z,76.81
2019-04-04T15:32:11.416Z,77.22
2019-04-04T15:34:40.684Z,78.83
2019-04-04T15:37:09.883Z,75.94
2019-04-04T15:39:39.134Z,75.49
2019-04-04T15:42:08.470Z,75.11
2019-04-04T15:44:37.769Z,75.38
2019-04-04T15:47:07.034Z,75.43
2019-04-04T15:49:36.387Z,75.81
2019-04-04T15:52:05.686Z,76.03
2019-04-04T15:54:34.932Z,75.73
2019-04-04T15:57:04.160Z,75.78
2019-04-04T15:59:33.377Z,75.95
2019-04-04T16:02:02.626Z,76.08
2019-04-04T16:04:31.969Z,76.03
2019-04-04T16:07:02.209Z,76.12
2019-04-04T16:09:31.498Z,76.14
2019-04-04T16:12:00.710Z,76.28
2019-04-04T16:14:29.942Z,76.33
2019-04-04T16:16:59.247Z,76.29
2019-04-04T16:19:28.452Z,76.34
2019-04-04T16:21:57.748Z,76.46
2019-04-04T16:24:26.984Z,76.49
2019-04-04T16:26:56.333Z,76.37
2019-04-04T16:29:25.543Z,76.48
2019-04-04T16:31:54.840Z,76.52
2019-04-04T16:34:24.103Z,76.52
2019-04-04T16:36:53.411Z,76.31
2019-04-04T16:39:22.674Z,75.73
2019-04-04T16:42:01.485Z,76.21
2019-04-04T16:44:21.180Z,76.62
2019-04-04T16:46:50.518Z,76.78
2019-04-04T16:49:19.730Z,76.84
2019-04-04T16:51:48.988Z,76.18
2019-04-04T16:54:18.415Z,76.76
2019-04-04T16:56:47.688Z,76.89
2019-04-04T16:59:16.994Z,77.53
2019-04-04T17:01:46.237Z,77.69
2019-04-04T17:04:15.464Z,77.63
2019-04-04T17:06:44.741Z,78.07
2019-04-04T17:09:13.970Z,78.08
2019-04-04T17:11:43.238Z,78.63
2019-04-04T17:14:12.406Z,78.71
2019-04-04T17:16:41.665Z,78.98
2019-04-04T17:19:10.902Z,79.29
2019-04-04T17:21:40.414Z,79.38
2019-04-04T17:24:09.861Z,79.82
2019-04-04T17:26:39.371Z,79.94
2019-04-04T17:29:08.588Z,80.03
2019-04-04T17:31:37.888Z,80.56
2019-04-04T17:34:07.615Z,81.04
2019-04-04T17:36:36.524Z,81.04
2019-04-04T17:39:07.418Z,80.73
2019-04-04T17:41:36.991Z,80.77
2019-04-04T17:44:06.585Z,80.90
2019-04-04T17:46:35.502Z,80.98
2019-04-04T17:49:04.444Z,81.28
2019-04-04T17:51:33.685Z,81.42
2019-04-04T17:54:03.721Z,81.60
2019-04-04T17:56:32.862Z,81.73
2019-04-04T17:59:01.769Z,81.73
2019-04-04T18:01:34.202Z,81.88
2019-04-04T18:04:00.730Z,82.11
2019-04-04T18:06:29.994Z,82.04
2019-04-04T18:08:59.309Z,82.37
2019-04-04T18:11:28.576Z,82.31
2019-04-04T18:13:57.859Z,82.68
2019-04-04T18:16:27.152Z,82.68
2019-04-04T18:18:56.586Z,82.82
2019-04-04T18:21:25.812Z,82.82
2019-04-04T18:23:55.186Z,83.24
2019-04-04T18:26:24.428Z,83.24
2019-04-04T18:28:53.661Z,83.38
2019-04-04T18:31:22.950Z,83.55
2019-04-04T18:33:52.631Z,83.50
2019-04-04T18:36:22.100Z,83.50
2019-04-04T18:38:50.781Z,83.27
2019-04-04T18:41:20.063Z,83.27
2019-04-04T18:43:49.372Z,83.29
2019-04-04T18:46:18.618Z,83.26
2019-04-04T18:48:47.854Z,83.05
2019-04-04T18:51:17.220Z,83.02
2019-04-04T18:53:46.456Z,83.07
2019-04-04T18:56:15.826Z,83.32
2019-04-04T18:58:45.062Z,83.67
2019-04-04T19:01:14.783Z,83.64
2019-04-04T19:03:44.042Z,83.48
2019-04-04T19:06:13.294Z,83.83
2019-04-04T19:08:42.558Z,83.65
2019-04-04T19:11:11.790Z,83.65
2019-04-04T19:13:44.438Z,83.74
2019-04-04T19:16:10.360Z,83.83
2019-04-04T19:18:39.580Z,83.98
2019-04-04T19:21:08.813Z,84.10
2019-04-04T19:23:48.623Z,84.14
2019-04-04T19:26:07.359Z,84.14
2019-04-04T19:28:36.587Z,84.07
2019-04-04T19:31:05.815Z,84.46
2019-04-04T19:33:35.090Z,84.07
2019-04-04T19:36:04.346Z,84.24
2019-04-04T19:38:34.680Z,84.54
2019-04-04T19:41:03.947Z,84.52
2019-04-04T19:43:33.237Z,84.66
2019-04-04T19:46:02.486Z,84.79
2019-04-04T19:48:31.716Z,84.75
2019-04-04T19:51:01.001Z,84.74
2019-04-04T19:53:30.303Z,84.57
2019-04-04T19:55:59.523Z,85.01
2019-04-04T19:58:28.743Z,85.08
2019-04-04T20:00:57.970Z,84.95
2019-04-04T20:03:27.234Z,84.95
2019-04-04T20:05:56.472Z,84.73
2019-04-04T20:08:25.797Z,84.53
2019-04-04T20:10:55.261Z,84.53
2019-04-04T20:13:30.792Z,84.49
2019-04-04T20:15:53.918Z,84.46
2019-04-04T20:18:23.142Z,84.51
2019-04-04T20:20:52.651Z,84.51
2019-04-04T20:23:21.868Z,84.67
2019-04-04T20:25:51.107Z,84.48
2019-04-04T20:28:20.321Z,84.45
2019-04-04T20:30:49.569Z,84.30
2019-04-04T20:33:18.794Z,84.30
2019-04-04T20:35:47.986Z,84.18
2019-04-04T20:38:17.239Z,84.30
2019-04-04T20:40:46.546Z,84.41
2019-04-04T20:43:15.834Z,84.25
2019-04-04T20:45:45.147Z,84.33
2019-04-04T20:48:14.434Z,84.05
2019-04-04T20:50:43.717Z,83.92
2019-04-04T20:53:12.932Z,84.12
2019-04-04T20:55:42.161Z,84.38
2019-04-04T20:58:11.492Z,84.38
2019-04-04T21:00:40.846Z,84.45
2019-04-04T21:03:10.246Z,84.66
2019-04-04T21:05:39.502Z,84.56
2019-04-04T21:08:08.954Z,84.69
2019-04-04T21:10:38.341Z,84.77
2019-04-04T21:13:07.650Z,84.73
2019-04-04T21:15:36.971Z,84.73
2019-04-04T21:18:06.314Z,84.38
2019-04-04T21:20:35.680Z,84.49
2019-04-04T21:23:04.889Z,84.50
2019-04-04T21:25:34.124Z,84.26
2019-04-04T21:28:03.368Z,84.43
2019-04-04T21:30:32.652Z,84.62
2019-04-04T21:33:01.981Z,84.66
2019-04-04T21:35:31.190Z,84.80
2019-04-04T21:38:00.432Z,84.88
2019-04-04T21:40:29.746Z,84.82
2019-04-04T21:42:59.010Z,84.66
2019-04-04T21:45:28.354Z,84.66
2019-04-04T21:47:57.574Z,84.90
2019-04-04T21:50:26.816Z,84.88
2019-04-04T21:52:56.090Z,84.88
2019-04-04T21:55:25.388Z,84.46
2019-04-04T21:57:54.643Z,84.35
2019-04-04T22:00:24.222Z,84.70
2019-04-04T22:02:53.557Z,84.47
2019-04-04T22:05:22.832Z,84.28
2019-04-04T22:07:52.142Z,84.28
2019-04-04T22:10:21.491Z,84.28
2019-04-04T22:12:50.798Z,84.61
2019-04-04T22:15:20.131Z,84.52
2019-04-04T22:17:49.424Z,84.40
2019-04-04T22:20:18.791Z,84.58
2019-04-04T22:22:48.083Z,84.57
2019-04-04T22:25:17.393Z,84.39
2019-04-04T22:27:46.684Z,84.43
2019-04-04T22:30:15.949Z,84.37
2019-04-04T22:32:45.220Z,84.57
2019-04-04T22:35:14.500Z,84.41
2019-04-04T22:37:43.841Z,84.49
2019-04-04T22:40:13.115Z,84.56
2019-04-04T22:42:42.399Z,84.56
2019-04-04T22:45:11.687Z,84.44
2019-04-04T22:47:40.950Z,84.69
2019-04-04T22:50:10.194Z,84.53
2019-04-04T22:52:39.519Z,84.38
2019-04-04T22:55:08.820Z,84.38
2019-04-04T22:57:38.095Z,84.53
2019-04-04T23:00:07.732Z,84.70
2019-04-04T23:02:37.069Z,84.84
2019-04-04T23:05:06.339Z,84.92
2019-04-04T23:07:35.578Z,84.67
2019-04-04T23:10:05.748Z,84.53
2019-04-04T23:12:35.046Z,84.42
2019-04-04T23:15:04.552Z,84.45
2019-04-04T23:17:33.800Z,84.55
2019-04-04T23:20:03.087Z,84.52
2019-04-04T23:22:32.455Z,84.32
2019-04-04T23:25:01.708Z,84.42
2019-04-04T23:27:30.978Z,84.55
2019-04-04T23:30:00.232Z,84.57
2019-04-04T23:32:29.560Z,84.57
2019-04-04T23:34:58.836Z,84.49
2019-04-04T23:37:28.147Z,84.95
2019-04-04T23:39:57.422Z,85.13
2019-04-04T23:42:26.750Z,85.12
2019-04-04T23:45:01.182Z,85.08
2019-04-04T23:47:25.351Z,85.27
2019-04-04T23:49:54.605Z,85.45
2019-04-04T23:52:23.948Z,85.60
2019-04-04T23:54:53.214Z,85.66
2019-04-04T23:57:22.478Z,85.56
2019-04-04T23:59:51.740Z,85.63
